Time;durP1;ratioP1;P1;durP2;ratioP2;P2;SDS_P1;SDS_P2;PMS_P1;PMS_P2;Temp;Humidity;BMP_temperature;BMP_pressure;BME280_temperature;BME280_humidity;BME280_pressure;Samples;Min_cycle;Max_cycle;Signal;HPM_P1;HPM_P2
2022/03/10 00:02:23;;;;;;;16.08;7.95;;;;;;;0.59;100.00;100053.59;4370822;32;20035;-77
2022/03/10 00:04:49;;;;;;;15.38;8.07;;;;;;;0.51;100.00;100041.13;4370983;32;20154;-77
2022/03/10 00:07:16;;;;;;;15.90;7.78;;;;;;;0.55;100.00;100046.94;4368329;32;20361;-77
2022/03/10 00:09:42;;;;;;;21.90;8.50;;;;;;;0.49;100.00;100052.84;4368203;32;20377;-78
2022/03/10 00:12:09;;;;;;;11.98;6.70;;;;;;;0.42;100.00;100057.16;4354667;32;20163;-78
2022/03/10 00:14:36;;;;;;;14.57;7.50;;;;;;;0.39;100.00;100052.97;4382966;32;20531;-77
2022/03/10 00:17:03;;;;;;;12.07;6.68;;;;;;;0.25;100.00;100067.66;4385892;32;20483;-78
2022/03/10 00:19:29;;;;;;;16.98;8.50;;;;;;;0.00;100.00;100032.25;4372429;32;20441;-79
2022/03/10 00:21:56;;;;;;;17.60;7.22;;;;;;;-0.12;100.00;100014.97;4369043;32;20341;-78
2022/03/10 00:24:23;;;;;;;17.70;9.05;;;;;;;-0.23;100.00;99985.09;4386020;32;20076;-79
2022/03/10 00:26:50;;;;;;;14.75;8.10;;;;;;;0.08;100.00;100044.69;4365814;32;20104;-79
2022/03/10 00:29:16;;;;;;;16.37;8.02;;;;;;;-0.14;100.00;100020.41;4383198;32;20039;-78
2022/03/10 00:31:42;;;;;;;13.73;6.97;;;;;;;-0.13;100.00;100027.34;4376222;32;20065;-80
2022/03/10 00:34:09;;;;;;;21.02;7.85;;;;;;;-0.16;100.00;100027.69;4383390;32;20104;-79
2022/03/10 00:36:36;;;;;;;12.10;6.85;;;;;;;-0.11;100.00;100033.34;4378967;32;20039;-78
2022/03/10 00:39:05;;;;;;;12.55;6.75;;;;;;;0.07;100.00;100082.78;4376090;32;20080;-79
2022/03/10 00:41:32;;;;;;;12.63;7.25;;;;;;;-0.39;100.00;100017.59;4358998;32;20099;-79
2022/03/10 00:43:59;;;;;;;14.75;6.90;;;;;;;-0.04;100.00;100095.28;4382700;32;20067;-77
2022/03/10 00:46:25;;;;;;;9.18;5.75;;;;;;;-0.37;100.00;100036.81;4382917;32;20043;-77
2022/03/10 00:48:52;;;;;;;10.88;5.47;;;;;;;-0.53;100.00;100028.72;4374340;32;20047;-78
2022/03/10 00:51:19;;;;;;;9.45;5.15;;;;;;;-0.36;100.00;100074.69;4368984;32;20062;-78
2022/03/10 00:53:45;;;;;;;10.23;5.10;;;;;;;-0.31;100.00;100096.22;4382379;32;20068;-79
2022/03/10 00:56:12;;;;;;;8.80;4.68;;;;;;;-0.58;100.00;100060.09;4385070;32;20058;-78
2022/03/10 00:58:38;;;;;;;9.85;4.37;;;;;;;-0.86;100.00;100078.72;4384863;32;20046;-78
2022/03/10 01:01:05;;;;;;;8.57;4.43;;;;;;;-0.65;100.00;100117.28;4387703;32;20039;-78
2022/03/10 01:03:31;;;;;;;7.90;4.50;;;;;;;-1.21;100.00;100067.09;4376633;32;20068;-79
2022/03/10 01:05:58;;;;;;;8.40;4.22;;;;;;;-1.35;100.00;100078.16;4389759;32;20046;-79
2022/03/10 01:08:24;;;;;;;7.28;3.97;;;;;;;-1.30;100.00;100102.31;4373037;32;20055;-78
2022/03/10 01:10:51;;;;;;;9.60;4.20;;;;;;;-1.34;100.00;100088.59;4375275;32;20393;-78
2022/03/10 01:13:19;;;;;;;9.40;4.45;;;;;;;-1.10;100.00;100146.19;4391635;32;20450;-78
2022/03/10 01:15:46;;;;;;;10.60;4.40;;;;;;;-1.26;100.00;100134.56;4395638;32;20356;-79
2022/03/10 01:18:14;;;;;;;11.40;4.25;;;;;;;-1.44;100.00;100143.25;4389249;32;20066;-78
2022/03/10 01:20:41;;;;;;;11.80;4.72;;;;;;;-2.13;100.00;100038.84;4395403;32;20039;-78
2022/03/10 01:23:11;;;;;;;7.82;3.78;;;;;;;-1.54;100.00;100138.00;4387821;32;20035;-78
2022/03/10 01:25:38;;;;;;;10.65;4.07;;;;;;;-1.88;100.00;100096.28;4384988;32;20043;-79
2022/03/10 01:28:05;;;;;;;4.47;3.00;;;;;;;-1.64;100.00;100166.28;4383282;32;20091;-79
2022/03/10 01:30:32;;;;;;;9.25;3.85;;;;;;;-1.98;100.00;100113.94;4376709;32;20035;-78
2022/03/10 01:32:59;;;;;;;7.78;3.80;;;;;;;-2.06;100.00;100111.19;4389455;32;20050;-79
2022/03/10 01:35:26;;;;;;;8.38;3.35;;;;;;;-1.69;100.00;100173.78;4379170;32;20364;-79
2022/03/10 01:37:52;;;;;;;10.10;4.68;;;;;;;-1.70;100.00;100174.75;4396029;32;20064;-79
2022/03/10 01:40:20;;;;;;;5.62;3.30;;;;;;;-2.23;100.00;100126.75;4384908;32;20078;-79
2022/03/10 01:42:47;;;;;;;9.07;4.32;;;;;;;-1.87;100.00;100182.44;4384754;32;20038;-79
2022/03/10 01:45:15;;;;;;;7.70;3.90;;;;;;;-1.83;100.00;100197.00;4384659;32;20047;-79
2022/03/10 01:47:42;;;;;;;6.97;4.32;;;;;;;-1.99;100.00;100159.81;4373868;32;20431;-79
2022/03/10 01:50:22;;;;;;;4.72;3.65;;;;;;;-2.03;100.00;100164.53;4369599;32;20350;-79
2022/03/10 01:52:49;;;;;;;10.43;4.28;;;;;;;-2.01;100.00;100172.28;4387917;32;20053;-79
2022/03/10 01:55:15;;;;;;;7.18;4.30;;;;;;;-2.43;100.00;100130.38;4365825;32;20068;-79
2022/03/10 01:57:43;;;;;;;5.45;3.12;;;;;;;-2.12;100.00;100193.53;4375988;32;20053;-77
2022/03/10 02:00:17;;;;;;;6.57;3.97;;;;;;;-2.11;100.00;100197.88;4393995;32;20069;-78
2022/03/10 02:02:44;;;;;;;7.55;3.62;;;;;;;-2.47;100.00;100134.25;4401811;32;20982;-77
2022/03/10 02:05:10;;;;;;;8.27;4.05;;;;;;;-2.23;100.00;100184.81;4376183;32;20090;-78
2022/03/10 02:10:28;;;;;;;7.85;4.12;;;;;;;-2.20;100.00;100199.53;4387220;32;20059;-77
2022/03/10 02:12:56;;;;;;;10.63;4.32;;;;;;;-2.79;100.00;100112.44;4386321;32;20030;-77
2022/03/10 02:18:17;;;;;;;8.98;4.28;;;;;;;-3.14;100.00;100053.16;4387644;32;20051;-78
2022/03/10 02:20:43;;;;;;;10.88;4.00;;;;;;;-2.35;100.00;100204.38;4389880;32;20439;-77
2022/03/10 02:23:11;;;;;;;8.23;3.80;;;;;;;-2.30;100.00;100210.06;4392352;32;20061;-77
2022/03/10 02:25:40;;;;;;;7.60;4.03;;;;;;;-2.83;100.00;100128.66;4371845;32;20035;-80
2022/03/10 02:28:08;;;;;;;14.00;4.57;;;;;;;-2.34;100.00;100211.31;4374213;32;20051;-76
2022/03/10 02:30:35;;;;;;;6.28;3.67;;;;;;;-2.68;100.00;100163.38;4387439;32;20057;-76
2022/03/10 02:33:03;;;;;;;11.05;3.50;;;;;;;-2.36;100.00;100215.91;4403182;32;20043;-76
2022/03/10 02:35:29;;;;;;;12.52;5.85;;;;;;;-2.72;100.00;100162.00;4385157;32;20449;-78
2022/03/10 02:37:56;;;;;;;9.20;5.20;;;;;;;-2.42;100.00;100216.47;4384355;32;20039;-77
2022/03/10 02:40:24;;;;;;;8.77;4.57;;;;;;;-2.76;100.00;100161.41;4387325;32;20043;-77
2022/03/10 02:42:51;;;;;;;7.25;4.72;;;;;;;-2.44;100.00;100215.75;4372973;32;20035;-76
2022/03/10 02:45:17;;;;;;;10.57;4.03;;;;;;;-2.82;100.00;100173.34;4372951;32;20064;-78
2022/03/10 02:47:44;;;;;;;11.00;4.03;;;;;;;-3.05;100.00;100133.19;4392698;32;20424;-78
2022/03/10 02:50:10;;;;;;;8.48;4.75;;;;;;;-2.61;100.00;100226.00;4377132;32;20113;-77
2022/03/10 02:52:38;;;;;;;9.82;4.20;;;;;;;-2.97;100.00;100174.69;4377795;32;20039;-77
2022/03/10 02:55:06;;;;;;;8.20;3.95;;;;;;;-2.59;100.00;100237.22;4386022;32;20072;-78
2022/03/10 02:57:33;;;;;;;8.32;4.45;;;;;;;-2.66;100.00;100230.84;4383335;32;20032;-79
2022/03/10 03:00:00;;;;;;;6.05;3.47;;;;;;;-2.65;100.00;100237.78;4386383;32;20101;-77
2022/03/10 03:02:28;;;;;;;8.75;3.85;;;;;;;-3.00;100.00;100182.84;4386262;32;20061;-76
2022/03/10 03:05:01;;;;;;;17.40;5.05;;;;;;;-3.11;100.00;100186.44;4387152;32;20117;-78
2022/03/10 03:07:28;;;;;;;10.35;4.70;;;;;;;-3.28;100.00;100167.62;4384784;32;20061;-79
2022/03/10 03:09:54;;;;;;;11.38;4.70;;;;;;;-2.85;100.00;100251.88;4383844;32;20043;-78
2022/03/10 03:12:21;;;;;;;10.68;4.50;;;;;;;-3.32;100.00;100191.75;4375739;32;20054;-78
2022/03/10 03:14:47;;;;;;;11.07;4.60;;;;;;;-2.89;100.00;100250.47;4394189;32;20030;-78
2022/03/10 03:17:13;;;;;;;11.73;4.62;;;;;;;-3.21;100.00;100209.25;4394544;32;20034;-80
2022/03/10 03:19:40;;;;;;;11.68;4.62;;;;;;;-2.95;100.00;100260.56;4394783;32;20078;-78
2022/03/10 03:22:07;;;;;;;10.38;4.85;;;;;;;-3.06;100.00;100260.66;4386846;32;20125;-79
2022/03/10 03:24:33;;;;;;;10.60;4.75;;;;;;;-3.02;100.00;100272.59;4386631;32;20082;-78
2022/03/10 03:27:00;;;;;;;9.45;4.45;;;;;;;-3.23;100.00;100242.81;4386105;32;20211;-79
2022/03/10 03:29:27;;;;;;;16.33;5.37;;;;;;;-3.40;100.00;100215.28;4392116;32;20069;-78
2022/03/10 03:31:53;;;;;;;9.32;5.00;;;;;;;-3.06;100.00;100275.63;4396128;32;20035;-79
2022/03/10 03:34:20;;;;;;;10.98;5.10;;;;;;;-3.44;100.00;100216.50;4369774;32;20082;-79
2022/03/10 03:36:47;;;;;;;7.78;4.45;;;;;;;-3.10;100.00;100280.31;4371819;32;20061;-79
2022/03/10 03:39:13;;;;;;;11.15;6.10;;;;;;;-3.15;100.00;100279.88;4369553;32;20066;-78
2022/03/10 03:41:41;;;;;;;14.55;6.10;;;;;;;-3.44;100.00;100234.94;4370761;32;20498;-78
2022/03/10 03:44:10;;;;;;;13.85;5.40;;;;;;;-3.58;100.00;100217.66;4384996;32;20428;-78
2022/03/10 03:46:37;;;;;;;15.20;5.93;;;;;;;-3.12;100.00;100292.78;4384265;32;20035;-79
2022/03/10 03:49:04;;;;;;;14.18;5.57;;;;;;;-3.49;100.00;100237.97;4386474;32;20058;-78
2022/03/10 03:51:31;;;;;;;15.38;6.65;;;;;;;-3.26;100.00;100279.97;4385286;32;20039;-80
2022/03/10 03:53:58;;;;;;;14.65;5.53;;;;;;;-3.52;100.00;100248.75;4387962;32;20039;-80
2022/03/10 03:56:24;;;;;;;13.85;5.53;;;;;;;-3.23;100.00;100306.03;4391889;32;20035;-79
2022/03/10 03:58:51;;;;;;;11.45;5.80;;;;;;;-3.62;100.00;100245.19;4385099;32;20386;-81
2022/03/10 04:01:18;;;;;;;12.60;5.82;;;;;;;-3.20;100.00;100321.59;4379951;32;20451;-79
2022/03/10 04:03:44;;;;;;;15.63;5.85;;;;;;;-3.19;100.00;100317.97;4385022;32;20047;-78
2022/03/10 04:06:11;;;;;;;13.27;6.15;;;;;;;-3.21;100.00;100322.53;4384118;32;20159;-78
2022/03/10 04:08:37;;;;;;;13.80;5.70;;;;;;;-3.28;100.00;100317.78;4383030;32;20035;-80
2022/03/10 04:11:05;;;;;;;12.57;5.70;;;;;;;-3.58;100.00;100271.16;4376149;32;20047;-79
2022/03/10 04:13:32;;;;;;;13.77;5.82;;;;;;;-3.34;100.00;100331.47;4377997;32;20071;-79
2022/03/10 04:15:58;;;;;;;14.77;5.85;;;;;;;-3.62;100.00;100279.44;4383479;32;20056;-78
2022/03/10 04:18:25;;;;;;;12.55;5.68;;;;;;;-3.66;100.00;100289.38;4387011;32;20081;-79
2022/03/10 04:20:52;;;;;;;9.60;5.35;;;;;;;-3.31;100.00;100348.81;4392366;32;20042;-79
2022/03/10 04:23:18;;;;;;;12.57;5.25;;;;;;;-3.52;100.00;100306.69;4382653;32;20057;-79
2022/03/10 04:25:45;;;;;;;12.90;5.93;;;;;;;-3.61;100.00;100303.00;4370405;32;20065;-79
2022/03/10 04:28:12;;;;;;;15.75;5.97;;;;;;;-3.37;100.00;100358.06;4370604;32;20027;-79
2022/03/10 04:30:38;;;;;;;12.32;5.37;;;;;;;-3.40;100.00;100349.59;4380921;32;20061;-79
2022/03/10 04:33:06;;;;;;;14.70;6.07;;;;;;;-4.12;100.00;100238.72;4390771;32;20038;-80
2022/03/10 04:35:32;;;;;;;11.35;6.03;;;;;;;-3.46;100.00;100358.84;4370887;32;20943;-78
2022/03/10 04:37:59;;;;;;;14.02;5.53;;;;;;;-3.88;100.00;100295.56;4384459;32;20167;-78
2022/03/10 04:40:26;;;;;;;17.62;6.10;;;;;;;-3.57;100.00;100357.09;4385119;32;20046;-78
2022/03/10 04:42:52;;;;;;;14.05;5.40;;;;;;;-3.58;100.00;100363.31;4369857;32;20077;-79
2022/03/10 04:45:19;;;;;;;18.05;6.03;;;;;;;-3.53;100.00;100370.81;4377121;32;20038;-78
2022/03/10 04:47:45;;;;;;;13.55;6.72;;;;;;;-3.90;100.00;100318.56;4370946;32;20061;-78
2022/03/10 04:50:14;;;;;;;12.40;5.35;;;;;;;-4.30;100.00;100263.91;4385531;32;20036;-78
2022/03/10 04:52:41;;;;;;;11.52;6.22;;;;;;;-3.65;100.00;100373.50;4384945;32;20085;-78
2022/03/10 04:55:10;;;;;;;18.37;6.68;;;;;;;-3.67;100.00;100375.44;4383761;32;20034;-79
2022/03/10 04:57:36;;;;;;;15.30;6.53;;;;;;;-3.66;100.00;100379.72;4370889;32;20174;-79
2022/03/10 05:00:10;;;;;;;17.23;6.85;;;;;;;-4.31;100.00;100284.09;4364955;32;20035;-79
2022/03/10 05:02:41;;;;;;;20.27;6.93;;;;;;;-3.80;100.00;100380.00;4381936;32;20078;-79
2022/03/10 05:05:10;;;;;;;19.87;7.82;;;;;;;-3.72;100.00;100395.19;4369404;32;20441;-79
2022/03/10 05:07:36;;;;;;;18.48;6.55;;;;;;;-3.88;100.00;100380.66;4384566;32;20047;-79
2022/03/10 05:10:03;;;;;;;18.52;6.95;;;;;;;-3.93;100.00;100392.50;4388496;32;20039;-78
2022/03/10 05:12:29;;;;;;;18.55;7.12;;;;;;;-3.89;100.00;100401.81;4392998;32;20076;-78
2022/03/10 05:14:56;;;;;;;16.42;6.65;;;;;;;-3.97;100.00;100401.56;4389014;32;20030;-79
2022/03/10 05:17:23;;;;;;;14.07;6.55;;;;;;;-4.21;100.00;100379.72;4391293;32;20786;-79
2022/03/10 05:19:51;;;;;;;15.13;7.43;;;;;;;-4.44;100.00;100336.00;4380897;32;20462;-79
2022/03/10 05:22:18;;;;;;;16.30;7.60;;;;;;;-3.95;100.00;100420.72;4385130;32;20043;-79
2022/03/10 05:24:46;;;;;;;15.18;6.00;;;;;;;-3.96;100.00;100426.94;4385750;32;20062;-80
2022/03/10 05:27:13;;;;;;;13.90;6.30;;;;;;;-4.09;100.00;100409.47;4388403;32;20417;-80
2022/03/10 05:29:40;;;;;;;20.88;7.37;;;;;;;-4.04;100.00;100422.28;4396730;32;20078;-80
2022/03/10 05:32:18;;;;;;;19.15;7.03;;;;;;;-3.96;100.00;100438.28;4377020;32;20073;-80
2022/03/10 05:34:44;;;;;;;22.42;7.50;;;;;;;-4.38;100.00;100375.78;4355504;32;20031;-78
2022/03/10 05:37:11;;;;;;;16.23;6.75;;;;;;;-4.37;100.00;100384.53;4366073;32;20048;-78
2022/03/10 05:39:37;;;;;;;26.00;7.95;;;;;;;-4.18;100.00;100404.94;4368073;32;20055;-77
2022/03/10 05:42:04;;;;;;;17.87;7.65;;;;;;;-4.13;100.00;100423.84;4380931;32;20035;-78
2022/03/10 05:44:30;;;;;;;20.23;6.50;;;;;;;-4.01;100.00;100454.44;4370203;32;20082;-79
2022/03/10 05:46:57;;;;;;;17.05;7.75;;;;;;;-3.92;100.00;100457.31;4369396;32;20023;-79
2022/03/10 05:49:24;;;;;;;23.40;8.52;;;;;;;-3.89;100.00;100463.19;4370702;32;20150;-80
2022/03/10 05:51:50;;;;;;;18.62;6.57;;;;;;;-4.13;100.00;100423.84;4393422;32;20090;-78
2022/03/10 05:54:17;;;;;;;16.90;7.55;;;;;;;-4.42;100.00;100387.53;4370323;32;20061;-80
2022/03/10 05:56:43;;;;;;;21.30;7.40;;;;;;;-3.97;100.00;100459.47;4369402;32;20086;-79
2022/03/10 05:59:10;;;;;;;22.27;8.88;;;;;;;-4.30;100.00;100411.19;4381720;32;20071;-79
2022/03/10 06:01:36;;;;;;;22.10;7.22;;;;;;;-3.93;100.00;100476.69;4384524;32;20072;-81
2022/03/10 06:04:03;;;;;;;21.33;8.38;;;;;;;-4.25;100.00;100436.16;4385010;32;20051;-81
2022/03/10 06:06:30;;;;;;;20.33;8.18;;;;;;;-4.21;100.00;100431.50;4369077;32;20051;-81
2022/03/10 06:08:56;;;;;;;18.00;8.80;;;;;;;-4.08;100.00;100463.78;4371353;32;20032;-82
2022/03/10 06:11:22;;;;;;;23.62;8.00;;;;;;;-3.92;100.00;100483.66;4381619;32;20076;-82
2022/03/10 06:13:49;;;;;;;16.37;6.57;;;;;;;-4.03;100.00;100461.63;4383714;32;20051;-79
2022/03/10 06:16:16;;;;;;;20.80;8.13;;;;;;;-3.77;100.00;100500.84;4389552;32;20428;-79
2022/03/10 06:18:43;;;;;;;17.45;6.62;;;;;;;-4.07;100.00;100439.16;4384389;32;20035;-80
2022/03/10 06:21:09;;;;;;;13.50;6.70;;;;;;;-3.62;100.00;100503.22;4381158;32;20106;-80
2022/03/10 06:23:36;;;;;;;15.68;6.90;;;;;;;-3.94;100.00;100453.97;4379504;32;20047;-84
2022/03/10 06:26:02;;;;;;;16.98;7.18;;;;;;;-3.55;100.00;100517.59;4368077;32;20072;-76
2022/03/10 06:28:30;;;;;;;16.37;6.87;;;;;;;-3.59;100.00;100516.13;4366450;32;20052;-82
2022/03/10 06:30:57;;;;;;;14.87;6.03;;;;;;;-3.83;100.00;100464.47;4367450;32;20055;-78
2022/03/10 06:33:24;;;;;;;21.60;6.87;;;;;;;-3.74;100.00;100473.44;4370721;32;20038;-77
2022/03/10 06:35:51;;;;;;;13.02;6.75;;;;;;;-3.40;100.00;100526.88;4367701;32;20092;-78
2022/03/10 06:38:17;;;;;;;11.23;5.45;;;;;;;-3.34;100.00;100533.47;4363936;32;20054;-77
2022/03/10 06:40:44;;;;;;;13.23;5.50;;;;;;;-4.13;100.00;100396.69;4385945;32;20376;-76
2022/03/10 06:43:11;;;;;;;13.50;5.03;;;;;;;-3.78;100.00;100458.84;4372716;32;20035;-77
2022/03/10 06:45:37;;;;;;;15.95;6.43;;;;;;;-3.25;100.00;100545.91;4385874;32;20146;-82
2022/03/10 06:48:04;;;;;;;12.37;5.68;;;;;;;-3.44;100.00;100512.28;4371836;32;20028;-76
2022/03/10 06:50:31;;;;;;;21.50;6.60;;;;;;;-4.80;100.00;100282.75;4386606;32;20140;-78
2022/03/10 06:52:58;;;;;;;22.00;5.95;;;;;;;-3.43;100.00;100490.28;4373827;32;20039;-78
2022/03/10 06:55:25;;;;;;;17.77;5.70;;;;;;;-3.35;100.00;100503.66;4372223;32;20036;-77
2022/03/10 06:57:52;;;;;;;12.07;5.65;;;;;;;-2.99;100.00;100549.06;4371866;32;20057;-81
2022/03/10 07:00:20;;;;;;;13.05;5.07;;;;;;;-2.96;100.00;100550.62;4369540;32;20060;-77
2022/03/10 07:02:47;;;;;;;11.90;4.70;;;;;;;-3.46;100.00;100474.72;4362367;32;20068;-77
2022/03/10 07:05:14;;;;;;;10.52;4.40;;;;;;;-2.88;100.00;100557.91;4385690;32;20069;-78
2022/03/10 07:07:40;;;;;;;12.07;4.00;;;;;;;-3.02;100.00;100536.13;4372163;32;20133;-76
2022/03/10 07:10:08;;;;;;;7.45;4.03;;;;;;;-2.85;100.00;100552.37;4384451;32;20042;-73
2022/03/10 07:12:35;;;;;;;9.57;4.10;;;;;;;-2.98;100.00;100563.91;4385462;32;20108;-78
2022/03/10 07:15:04;;;;;;;8.75;4.40;;;;;;;-3.24;100.00;100494.87;4385555;32;20151;-77
2022/03/10 07:17:31;;;;;;;8.57;4.15;;;;;;;-2.84;100.00;100543.50;4385751;32;20082;-80
2022/03/10 07:19:57;;;;;;;9.70;3.95;;;;;;;-2.74;100.00;100555.81;4384083;32;20046;-79
2022/03/10 07:22:24;;;;;;;13.27;5.03;;;;;;;-2.76;100.00;100556.88;4383271;32;20076;-80
2022/03/10 07:24:52;;;;;;;7.30;3.85;;;;;;;-2.71;100.00;100565.28;4373210;32;20101;-80
2022/03/10 07:27:19;;;;;;;6.90;4.25;;;;;;;-2.83;100.00;100516.19;4388084;32;20061;-81
2022/03/10 07:29:45;;;;;;;6.07;3.45;;;;;;;-2.49;100.00;100569.63;4391805;32;20035;-83
2022/03/10 07:32:12;;;;;;;15.90;4.07;;;;;;;-2.52;100.00;100569.00;4388664;32;20039;-85
2022/03/10 07:34:39;;;;;;;9.73;3.85;;;;;;;-2.53;100.00;100572.63;4374909;32;20102;-80
2022/03/10 07:37:05;;;;;;;11.55;4.35;;;;;;;-2.46;100.00;100579.06;4386749;32;20054;-86
2022/03/10 07:39:32;;;;;;;9.00;3.47;;;;;;;-2.75;100.00;100522.47;4372969;32;20027;-84
2022/03/10 07:42:00;;;;;;;10.63;3.97;;;;;;;-2.37;100.00;100578.31;4387372;32;20422;-82
2022/03/10 07:44:26;;;;;;;9.65;3.42;;;;;;;-2.59;100.00;100532.59;4385479;32;20353;-82
2022/03/10 07:46:53;;;;;;;11.32;4.10;;;;;;;-3.19;100.00;100428.62;4385244;32;20034;-81
2022/03/10 07:49:19;;;;;;;5.18;3.22;;;;;;;-2.61;100.00;100526.62;4383810;32;20080;-82
2022/03/10 07:51:46;;;;;;;10.38;4.07;;;;;;;-2.17;100.00;100584.56;4373426;32;20080;-83
2022/03/10 07:54:12;;;;;;;9.35;3.90;;;;;;;-2.13;100.00;100595.69;4372806;32;20039;-82
2022/03/10 07:56:39;;;;;;;7.80;4.05;;;;;;;-2.11;100.00;100589.28;4371813;32;20043;-82
2022/03/10 07:59:06;;;;;;;5.25;2.83;;;;;;;-2.15;100.00;100592.31;4369628;32;20036;-81
2022/03/10 08:01:32;;;;;;;6.60;3.00;;;;;;;-2.11;100.00;100599.03;4372001;32;20302;-81
2022/03/10 08:03:59;;;;;;;8.55;3.60;;;;;;;-2.11;100.00;100593.75;4372303;32;20074;-82
2022/03/10 08:06:27;;;;;;;5.28;2.80;;;;;;;-2.06;100.00;100602.09;4371960;32;20365;-80
2022/03/10 08:08:53;;;;;;;7.50;3.70;;;;;;;-1.98;100.00;100588.25;4370401;32;20039;-81
2022/03/10 08:11:20;;;;;;;12.37;3.35;;;;;;;-2.15;100.00;100555.37;4368817;32;20365;-80
2022/03/10 08:13:47;;;;;;;6.85;3.37;;;;;;;-2.21;100.00;100547.00;4369758;32;20047;-80
2022/03/10 08:16:14;;;;;;;4.43;3.10;;;;;;;-1.82;100.00;100609.75;4371564;32;20388;-84
2022/03/10 08:18:40;;;;;;;10.00;3.92;;;;;;;-1.89;100.00;100585.69;4386157;32;20077;-82
2022/03/10 08:21:09;;;;;;;6.07;3.50;;;;;;;-2.01;100.00;100584.06;4371707;32;20313;-82
2022/03/10 08:23:36;;;;;;;5.40;3.20;;;;;;;-1.75;100.00;100608.28;4370939;32;20043;-83
2022/03/10 08:26:04;;;;;;;7.30;3.40;;;;;;;-1.71;100.00;100611.47;4373555;32;20055;-81
2022/03/10 08:28:32;;;;;;;5.93;2.62;;;;;;;-2.02;100.00;100546.28;4380275;32;20092;-81
2022/03/10 08:30:58;;;;;;;5.97;2.92;;;;;;;-1.73;100.00;100571.16;4368172;32;20023;-82
2022/03/10 08:33:25;;;;;;;10.00;3.53;;;;;;;-1.55;100.00;100616.28;4367347;32;20065;-82
2022/03/10 08:35:52;;;;;;;6.70;2.85;;;;;;;-1.61;100.00;100601.81;4370369;32;20108;-82
2022/03/10 08:38:18;;;;;;;4.80;2.75;;;;;;;-1.80;100.00;100607.84;4371992;32;20047;-80
2022/03/10 08:40:45;;;;;;;5.35;2.28;;;;;;;-1.81;100.00;100610.59;4369751;32;20043;-81
2022/03/10 08:43:12;;;;;;;5.25;2.85;;;;;;;-2.10;100.00;100547.91;4356705;32;20089;-81
2022/03/10 08:45:39;;;;;;;9.45;3.05;;;;;;;-2.08;100.00;100561.81;4368169;32;20419;-80
2022/03/10 08:48:06;;;;;;;4.90;2.35;;;;;;;-1.64;100.00;100602.09;4369082;32;20076;-81
2022/03/10 08:50:33;;;;;;;6.95;2.55;;;;;;;-1.90;100.00;100554.97;4371737;32;20402;-81
2022/03/10 08:53:00;;;;;;;6.10;3.65;;;;;;;-1.61;100.00;100600.97;4370099;32;20061;-82
2022/03/10 08:55:27;;;;;;;9.43;2.75;;;;;;;-1.60;100.00;100603.47;4357356;32;20069;-80
2022/03/10 08:57:55;;;;;;;6.70;3.95;;;;;;;-1.61;100.00;100596.53;4369242;32;20053;-81
2022/03/10 09:00:22;;;;;;;5.75;2.95;;;;;;;-1.57;100.00;100587.34;4372564;32;20055;-80
2022/03/10 09:02:50;;;;;;;6.47;2.58;;;;;;;-1.47;100.00;100604.09;4385707;32;20188;-82
2022/03/10 09:05:18;;;;;;;3.03;2.60;;;;;;;-1.42;100.00;100598.41;4384288;32;20046;-73
2022/03/10 09:07:45;;;;;;;3.37;2.45;;;;;;;-1.33;100.00;100588.84;4385403;32;20064;-74
2022/03/10 09:10:12;;;;;;;7.93;3.15;;;;;;;-1.22;100.00;100599.31;4368571;32;20038;-74
2022/03/10 09:12:40;;;;;;;4.82;3.25;;;;;;;-1.35;100.00;100581.03;4385964;32;20090;-74
2022/03/10 09:15:32;;;;;;;5.72;2.53;;;;;;;-1.24;100.00;100598.62;4385343;32;20068;-73
2022/03/10 09:18:09;;;;;;;5.00;3.15;;;;;;;-1.15;100.00;100600.44;4400521;32;20211;-73
2022/03/10 09:20:44;;;;;;;6.50;3.20;;;;;;;-1.14;100.00;100610.03;4399900;32;20035;-74
2022/03/10 09:23:12;;;;;;;7.22;3.10;;;;;;;-1.46;100.00;100542.34;4399647;32;20042;-75
2022/03/10 09:25:38;;;;;;;4.60;3.10;;;;;;;-0.97;100.00;100603.28;4397973;32;20038;-74
2022/03/10 09:28:05;;;;;;;7.50;3.08;;;;;;;-1.29;100.00;100558.53;4399085;32;20416;-74
2022/03/10 09:30:32;;;;;;;13.88;4.57;;;;;;;-1.02;100.00;100602.00;4385232;32;20418;-74
2022/03/10 09:32:58;;;;;;;5.07;2.87;;;;;;;-1.09;100.00;100601.69;4386902;32;20077;-74
2022/03/10 09:35:26;;;;;;;3.53;2.62;;;;;;;-0.96;100.00;100609.38;4384527;32;20042;-75
2022/03/10 09:37:59;;;;;;;11.23;3.75;;;;;;;-0.93;100.00;100602.00;4400005;32;20947;-74
2022/03/10 09:40:26;;;;;;;4.68;3.15;;;;;;;-0.82;100.00;100609.00;4399038;32;20048;-74
2022/03/10 09:42:52;;;;;;;6.53;3.28;;;;;;;-0.77;100.00;100612.06;4398802;32;20035;-74
2022/03/10 09:45:19;;;;;;;10.63;3.10;;;;;;;-0.75;99.28;100609.28;4399173;32;20038;-74
2022/03/10 09:47:47;;;;;;;5.75;2.80;;;;;;;-1.12;98.56;100538.53;4385324;32;20031;-74
2022/03/10 09:50:18;;;;;;;7.32;3.03;;;;;;;-0.78;99.71;100615.69;4387631;32;20513;-74
2022/03/10 09:52:46;;;;;;;14.57;3.12;;;;;;;-0.81;100.00;100578.94;4367859;32;20055;-75
2022/03/10 09:55:16;;;;;;;9.45;3.15;;;;;;;-0.67;96.92;100611.25;4368816;32;20044;-73
2022/03/10 09:57:44;;;;;;;8.85;3.08;;;;;;;-0.74;96.65;100609.13;4366799;32;20061;-74
2022/03/10 10:00:14;;;;;;;6.95;2.75;;;;;;;-0.45;96.52;100618.91;4366326;32;20963;-74
2022/03/10 10:02:42;;;;;;;6.28;3.55;;;;;;;-0.41;96.41;100607.06;4357527;32;20460;-74
2022/03/10 10:05:27;;;;;;;8.52;3.78;;;;;;;-0.21;94.79;100622.94;4383937;32;20046;-74
2022/03/10 10:08:14;;;;;;;4.43;2.83;;;;;;;-0.24;91.44;100617.94;4387545;32;20055;-74
2022/03/10 10:10:48;;;;;;;9.38;3.08;;;;;;;-0.45;88.67;100567.78;4374356;32;20049;-74
2022/03/10 10:13:40;;;;;;;5.30;2.87;;;;;;;-0.41;86.85;100570.03;4387306;32;20327;-75
2022/03/10 10:16:11;;;;;;;7.82;3.00;;;;;;;-0.14;88.09;100624.06;4373988;32;20031;-74
2022/03/10 10:18:39;;;;;;;8.25;3.20;;;;;;;-0.43;85.60;100574.62;4385876;32;20031;-74
2022/03/10 10:21:06;;;;;;;4.68;2.90;;;;;;;-0.10;83.06;100620.16;4386665;32;20136;-74
2022/03/10 10:23:35;;;;;;;4.85;3.00;;;;;;;-0.05;80.44;100630.31;4366420;32;20023;-74
2022/03/10 10:26:09;;;;;;;5.20;2.62;;;;;;;0.12;84.27;100607.56;4359144;32;20073;-74
2022/03/10 10:28:43;;;;;;;3.25;2.60;;;;;;;0.20;84.22;100626.22;4376897;32;20080;-74
2022/03/10 10:31:21;;;;;;;4.78;2.65;;;;;;;-0.08;88.02;100570.53;4386374;32;20047;-74
2022/03/10 10:34:11;;;;;;;5.22;3.30;;;;;;;0.11;88.05;100588.22;4373033;32;20019;-72
2022/03/10 10:36:41;;;;;;;5.97;3.03;;;;;;;0.27;84.28;100627.34;4386689;32;20060;-74
2022/03/10 10:39:11;;;;;;;5.18;2.92;;;;;;;0.51;84.43;100631.28;4387252;32;20384;-73
2022/03/10 10:41:42;;;;;;;8.27;4.07;;;;;;;-0.09;86.22;100615.69;4387360;32;20038;-74
2022/03/10 10:44:15;;;;;;;5.82;3.22;;;;;;;-0.05;94.63;100575.56;4384553;32;20069;-74
2022/03/10 10:46:48;;;;;;;7.22;3.20;;;;;;;0.66;94.23;100631.69;4371645;32;20051;-74
2022/03/10 10:49:20;;;;;;;4.30;2.67;;;;;;;0.82;91.39;100631.06;4367706;32;20053;-74
2022/03/10 10:51:49;;;;;;;6.78;3.58;;;;;;;0.67;86.97;100591.75;4385567;32;20196;-74
2022/03/10 10:54:24;;;;;;;8.57;2.97;;;;;;;0.56;86.08;100549.53;4384986;32;20043;-74
2022/03/10 10:57:02;;;;;;;5.87;2.97;;;;;;;1.19;87.48;100640.75;4387031;32;20064;-73
2022/03/10 10:59:34;;;;;;;11.23;3.12;;;;;;;1.34;85.53;100641.94;4383983;32;20163;-74
2022/03/10 11:02:08;;;;;;;8.13;3.58;;;;;;;1.14;83.27;100641.19;4360347;32;20035;-74
2022/03/10 11:04:39;;;;;;;4.05;2.35;;;;;;;1.27;83.46;100635.53;4385105;32;20110;-74
2022/03/10 11:07:10;;;;;;;7.10;3.55;;;;;;;1.21;80.98;100641.44;4386442;32;20094;-73
2022/03/10 11:09:42;;;;;;;7.32;3.58;;;;;;;0.81;79.62;100637.31;4385367;32;20039;-73
2022/03/10 11:12:10;;;;;;;;;;;;;;;0.76;83.17;100586.56;4385751;32;20077;-73
2022/03/10 11:14:37;;;;;;;4.37;2.97;;;;;;;1.40;82.05;100640.47;4381278;32;19968;-73
2022/03/10 11:17:04;;;;;;;8.43;5.35;;;;;;;1.34;85.03;100583.53;4385424;32;20027;-73
2022/03/10 11:19:33;;;;;;;4.45;2.80;;;;;;;1.96;82.61;100602.16;4364646;32;20043;-74
2022/03/10 11:22:19;;;;;;;5.03;2.97;;;;;;;1.31;72.57;100585.63;4371389;32;20057;-73
2022/03/10 11:25:04;;;;;;;5.28;3.10;;;;;;;1.69;75.24;100587.16;4370941;32;20035;-74